Time;durP1;ratioP1;P1;durP2;ratioP2;P2;SDS_P1;SDS_P2;PMS_P1;PMS_P2;Temp;Humidity;BMP_temperature;BMP_pressure;BME280_temperature;BME280_humidity;BME280_pressure;Samples;Min_cycle;Max_cycle;Signal;HPM_P1;HPM_P2
2022/08/10 00:01:42;;;;;;;7.85;7.18;;;;;;;;;;5042587;28;20021;-71
2022/08/10 00:04:07;;;;;;;9.05;8.25;;;;;;;;;;5051298;28;20296;-73
2022/08/10 00:06:33;;;;;;;8.73;7.97;;;;;;;;;;5049391;28;20029;-72
2022/08/10 00:08:58;;;;;;;10.13;9.32;;;;;;;;;;5034982;28;20521;-71
2022/08/10 00:11:24;;;;;;;8.13;7.43;;;;;;;;;;5051623;28;20031;-74
2022/08/10 00:13:50;;;;;;;10.27;8.32;;;;;;;;;;5048057;28;20086;-73
2022/08/10 00:16:15;;;;;;;9.00;8.07;;;;;;;;;;5046366;28;20056;-71
2022/08/10 00:18:40;;;;;;;8.90;8.02;;;;;;;;;;5046870;28;20040;-72
2022/08/10 00:21:06;;;;;;;8.73;8.02;;;;;;;;;;5030681;28;20036;-71
2022/08/10 00:23:32;;;;;;;12.93;8.65;;;;;;;;;;5047403;28;20039;-71
2022/08/10 00:25:58;;;;;;;10.13;9.13;;;;;;;;;;5052635;28;20028;-72
2022/08/10 00:28:23;;;;;;;9.98;9.07;;;;;;;;;;5053076;28;20394;-71
2022/08/10 00:30:48;;;;;;;10.75;9.70;;;;;;;;;;5054626;28;20404;-73
2022/08/10 00:33:14;;;;;;;11.52;10.05;;;;;;;;;;5046440;28;20021;-71
2022/08/10 00:35:39;;;;;;;10.70;9.70;;;;;;;;;;5057696;28;20032;-72
2022/08/10 00:38:04;;;;;;;12.23;11.05;;;;;;;;;;5050719;28;21280;-72
2022/08/10 00:40:30;;;;;;;11.48;10.10;;;;;;;;;;5043431;28;20052;-72
2022/08/10 00:42:55;;;;;;;11.30;9.45;;;;;;;;;;5046532;28;20037;-72
2022/08/10 00:45:20;;;;;;;10.88;9.77;;;;;;;;;;5046815;28;20034;-72
2022/08/10 00:47:46;;;;;;;9.35;8.38;;;;;;;;;;5046471;28;20419;-71
2022/08/10 00:50:11;;;;;;;10.07;8.52;;;;;;;;;;5052007;28;20028;-73
2022/08/10 00:52:37;;;;;;;9.50;8.60;;;;;;;;;;5055492;28;20079;-73
2022/08/10 00:55:04;;;;;;;10.38;8.10;;;;;;;;;;5053728;28;20032;-75
2022/08/10 00:57:29;;;;;;;10.35;8.95;;;;;;;;;;5053097;28;20024;-72
2022/08/10 00:59:54;;;;;;;9.27;8.38;;;;;;;;;;5044833;28;20036;-71
2022/08/10 01:02:20;;;;;;;9.23;8.32;;;;;;;;;;5054923;28;20440;-72
2022/08/10 01:04:45;;;;;;;9.10;8.30;;;;;;;;;;5052985;28;20074;-70
2022/08/10 01:07:11;;;;;;;8.50;7.68;;;;;;;;;;5051112;28;20031;-72
2022/08/10 01:09:50;;;;;;;8.82;7.78;;;;;;;;;;5047499;28;20029;-71
2022/08/10 01:12:29;;;;;;;8.73;8.02;;;;;;;;;;5046539;28;20035;-70
2022/08/10 01:15:00;;;;;;;8.57;7.78;;;;;;;;;;5031233;28;20032;-71
2022/08/10 01:17:33;;;;;;;7.90;7.15;;;;;;;;;;5048040;28;20032;-71
2022/08/10 01:20:02;;;;;;;9.10;8.18;;;;;;;;;;5053480;28;20147;-71
2022/08/10 01:22:36;;;;;;;7.72;7.05;;;;;;;;;;5048459;28;20016;-71
2022/08/10 01:25:14;;;;;;;7.25;6.57;;;;;;;;;;5052976;28;20046;-71
2022/08/10 01:27:48;;;;;;;7.10;6.47;;;;;;;;;;5053938;28;20143;-72
2022/08/10 01:30:14;;;;;;;7.50;6.85;;;;;;;;;;5044739;28;20501;-73
2022/08/10 01:32:39;;;;;;;7.55;6.85;;;;;;;;;;5042906;28;20021;-76
2022/08/10 01:35:09;;;;;;;6.88;6.15;;;;;;;;;;5052779;28;20043;-72
2022/08/10 01:37:37;;;;;;;7.00;6.30;;;;;;;;;;5055092;28;20032;-75
2022/08/10 01:40:05;;;;;;;7.22;6.53;;;;;;;;;;5050781;28;20083;-72
2022/08/10 01:42:33;;;;;;;7.28;6.57;;;;;;;;;;5046918;28;20041;-75
2022/08/10 01:44:59;;;;;;;6.80;6.07;;;;;;;;;;5051670;28;20037;-72
2022/08/10 01:50:16;;;;;;;7.35;6.65;;;;;;;;;;5048010;28;20036;-71
2022/08/10 01:52:43;;;;;;;6.53;5.95;;;;;;;;;;5048062;28;20428;-71
2022/08/10 01:55:09;;;;;;;9.65;8.85;;;;;;;;;;5055146;28;20046;-74
2022/08/10 01:57:36;;;;;;;11.38;10.38;;;;;;;;;;5045018;28;20445;-72
2022/08/10 02:00:02;;;;;;;12.45;11.35;;;;;;;;;;5045359;28;20112;-70
2022/08/10 02:02:29;;;;;;;14.40;13.15;;;;;;;;;;5051850;28;20158;-71
2022/08/10 02:04:54;;;;;;;13.80;12.55;;;;;;;;;;5050005;28;20031;-70
2022/08/10 02:07:22;;;;;;;17.35;15.70;;;;;;;;;;5055286;28;20020;-73
2022/08/10 02:09:50;;;;;;;17.90;16.20;;;;;;;;;;5045163;28;20032;-70
2022/08/10 02:12:18;;;;;;;18.08;16.42;;;;;;;;;;5043685;28;20093;-71
2022/08/10 02:14:49;;;;;;;22.08;19.48;;;;;;;;;;5045703;28;20036;-73
2022/08/10 02:17:20;;;;;;;24.38;21.80;;;;;;;;;;5053923;28;20025;-73
2022/08/10 02:19:47;;;;;;;21.58;19.58;;;;;;;;;;5043375;28;20039;-72
2022/08/10 02:22:13;;;;;;;19.02;16.33;;;;;;;;;;5053641;28;20029;-74
2022/08/10 02:24:39;;;;;;;20.40;18.50;;;;;;;;;;5042226;28;20071;-72
2022/08/10 02:27:06;;;;;;;18.73;16.92;;;;;;;;;;5043955;28;20085;-71
2022/08/10 02:29:32;;;;;;;20.15;18.23;;;;;;;;;;5045679;28;20028;-72
2022/08/10 02:31:58;;;;;;;18.88;16.98;;;;;;;;;;5050781;28;20073;-71
2022/08/10 02:34:24;;;;;;;19.23;17.40;;;;;;;;;;5047646;28;20024;-74
2022/08/10 02:36:52;;;;;;;19.30;17.48;;;;;;;;;;5045802;28;20028;-74
2022/08/10 02:39:19;;;;;;;18.63;16.85;;;;;;;;;;5050833;28;20412;-72
2022/08/10 02:41:47;;;;;;;20.95;18.75;;;;;;;;;;5049355;28;20057;-74
2022/08/10 02:44:20;;;;;;;18.15;16.38;;;;;;;;;;5049150;28;20025;-72
2022/08/10 02:46:48;;;;;;;19.45;17.63;;;;;;;;;;5043615;28;20085;-74
2022/08/10 02:49:19;;;;;;;18.55;16.83;;;;;;;;;;5051498;28;20097;-75
2022/08/10 02:51:57;;;;;;;16.35;14.65;;;;;;;;;;5053974;28;20017;-73
2022/08/10 02:54:25;;;;;;;18.05;15.23;;;;;;;;;;5051162;28;20435;-72
2022/08/10 02:56:55;;;;;;;17.45;15.75;;;;;;;;;;5052443;28;20458;-73
2022/08/10 02:59:41;;;;;;;18.17;16.38;;;;;;;;;;5050886;28;20066;-75
2022/08/10 03:02:09;;;;;;;20.05;18.05;;;;;;;;;;5056360;28;20031;-71
2022/08/10 03:04:36;;;;;;;22.70;20.52;;;;;;;;;;5046891;28;20766;-71
2022/08/10 03:07:09;;;;;;;22.60;20.40;;;;;;;;;;5050072;28;20021;-72
2022/08/10 03:09:37;;;;;;;21.77;19.48;;;;;;;;;;5054955;28;21199;-76
2022/08/10 03:12:04;;;;;;;20.23;18.23;;;;;;;;;;5050622;28;20082;-72
2022/08/10 03:14:29;;;;;;;31.52;28.63;;;;;;;;;;5054170;28;20478;-73
2022/08/10 03:16:55;;;;;;;32.30;29.02;;;;;;;;;;5054033;28;20029;-75
2022/08/10 03:19:22;;;;;;;31.50;28.48;;;;;;;;;;5052014;28;20112;-72
2022/08/10 03:21:48;;;;;;;28.38;25.38;;;;;;;;;;5052825;28;20059;-71
2022/08/10 03:24:15;;;;;;;27.20;24.58;;;;;;;;;;5050896;28;20028;-70
2022/08/10 03:26:40;;;;;;;21.40;19.40;;;;;;;;;;5051331;28;20401;-70
2022/08/10 03:29:06;;;;;;;19.45;17.42;;;;;;;;;;5053277;28;20051;-72
2022/08/10 03:31:32;;;;;;;20.67;18.67;;;;;;;;;;5050538;28;20025;-72
2022/08/10 03:33:59;;;;;;;24.95;21.60;;;;;;;;;;5051973;28;20432;-72
2022/08/10 03:36:24;;;;;;;25.50;22.80;;;;;;;;;;5048894;28;20021;-76
2022/08/10 03:38:53;;;;;;;25.45;22.92;;;;;;;;;;5051229;28;20086;-72
2022/08/10 03:41:22;;;;;;;25.15;22.58;;;;;;;;;;5050270;28;20052;-71
2022/08/10 03:43:48;;;;;;;24.48;19.50;;;;;;;;;;5051277;28;20016;-72
2022/08/10 03:46:15;;;;;;;23.00;20.67;;;;;;;;;;5052089;28;20033;-73
2022/08/10 03:48:40;;;;;;;21.42;19.30;;;;;;;;;;5049738;28;20402;-71
2022/08/10 03:51:07;;;;;;;20.00;18.17;;;;;;;;;;5047598;28;20107;-72
2022/08/10 03:53:34;;;;;;;20.30;18.17;;;;;;;;;;5048547;28;20029;-73
2022/08/10 03:56:00;;;;;;;20.90;18.80;;;;;;;;;;5050659;28;20032;-71
2022/08/10 03:58:25;;;;;;;19.27;17.48;;;;;;;;;;5036907;28;20394;-74
2022/08/10 04:00:51;;;;;;;21.13;19.02;;;;;;;;;;5055425;28;20029;-72
2022/08/10 04:03:16;;;;;;;19.40;17.33;;;;;;;;;;5054433;28;20386;-75
2022/08/10 04:05:42;;;;;;;21.45;19.42;;;;;;;;;;5051095;28;20620;-72
2022/08/10 04:08:07;;;;;;;20.33;18.33;;;;;;;;;;5053904;28;20033;-73
2022/08/10 04:10:33;;;;;;;18.80;16.98;;;;;;;;;;5056445;28;20036;-71
2022/08/10 04:12:58;;;;;;;19.55;17.67;;;;;;;;;;5058058;28;20355;-71
2022/08/10 04:15:23;;;;;;;19.85;17.95;;;;;;;;;;5057633;28;20021;-72
2022/08/10 04:17:49;;;;;;;18.95;17.05;;;;;;;;;;5054965;28;20025;-71
2022/08/10 04:20:19;;;;;;;20.15;18.27;;;;;;;;;;5055033;28;20481;-72
2022/08/10 04:22:46;;;;;;;19.67;17.75;;;;;;;;;;5052320;28;20056;-71
2022/08/10 04:25:12;;;;;;;19.83;17.83;;;;;;;;;;5049080;28;20025;-75
2022/08/10 04:27:37;;;;;;;21.17;19.00;;;;;;;;;;5052198;28;20045;-74
2022/08/10 04:30:03;;;;;;;20.48;18.58;;;;;;;;;;5057462;28;20473;-73
2022/08/10 04:32:30;;;;;;;21.80;19.80;;;;;;;;;;5056018;28;20445;-71
2022/08/10 04:34:57;;;;;;;20.80;18.80;;;;;;;;;;5056011;28;20063;-73
2022/08/10 04:37:23;;;;;;;21.13;18.92;;;;;;;;;;5056378;28;20031;-71
2022/08/10 04:39:48;;;;;;;21.30;19.20;;;;;;;;;;5054999;28;20025;-71
2022/08/10 04:42:13;;;;;;;19.85;17.98;;;;;;;;;;5055974;28;20553;-73
2022/08/10 04:44:40;;;;;;;19.88;17.98;;;;;;;;;;5053605;28;20032;-71
2022/08/10 04:47:05;;;;;;;24.05;21.55;;;;;;;;;;5055473;28;20040;-73
2022/08/10 04:49:31;;;;;;;22.92;20.23;;;;;;;;;;5053257;28;20347;-71
2022/08/10 04:51:56;;;;;;;21.83;19.67;;;;;;;;;;5052645;28;20024;-74
2022/08/10 04:54:21;;;;;;;22.35;20.05;;;;;;;;;;5057184;28;20028;-72
2022/08/10 04:56:47;;;;;;;24.20;21.90;;;;;;;;;;5055871;28;20085;-71
2022/08/10 04:59:12;;;;;;;24.80;22.30;;;;;;;;;;5053685;28;20032;-71
2022/08/10 05:01:38;;;;;;;25.17;22.83;;;;;;;;;;5056298;28;20474;-71
2022/08/10 05:04:04;;;;;;;23.17;20.98;;;;;;;;;;5054177;28;20039;-71
2022/08/10 05:06:29;;;;;;;24.75;22.17;;;;;;;;;;5054281;28;20440;-73
2022/08/10 05:08:54;;;;;;;24.42;21.83;;;;;;;;;;5055627;28;20060;-73
2022/08/10 05:11:20;;;;;;;25.05;22.55;;;;;;;;;;5054273;28;20495;-75
2022/08/10 05:13:45;;;;;;;24.58;22.23;;;;;;;;;;5053652;28;20036;-72
2022/08/10 05:16:10;;;;;;;26.55;23.95;;;;;;;;;;5052880;28;20106;-73
2022/08/10 05:18:36;;;;;;;27.38;24.67;;;;;;;;;;5055112;28;20031;-72
2022/08/10 05:21:01;;;;;;;26.98;24.27;;;;;;;;;;5055147;28;20032;-75
2022/08/10 05:23:26;;;;;;;27.92;25.23;;;;;;;;;;5049002;28;20039;-72
2022/08/10 05:25:52;;;;;;;29.17;26.13;;;;;;;;;;5046705;28;20115;-71
2022/08/10 05:28:17;;;;;;;28.95;25.80;;;;;;;;;;5042625;28;20028;-71
2022/08/10 05:30:43;;;;;;;27.77;25.08;;;;;;;;;;5046175;28;20447;-73
2022/08/10 05:33:08;;;;;;;28.38;25.52;;;;;;;;;;5047005;28;20028;-71
2022/08/10 05:35:33;;;;;;;27.58;24.70;;;;;;;;;;5048626;28;20032;-71
2022/08/10 05:37:59;;;;;;;27.48;24.73;;;;;;;;;;5044129;28;20139;-74
2022/08/10 05:40:25;;;;;;;28.50;25.48;;;;;;;;;;5041875;28;20045;-72
2022/08/10 05:42:51;;;;;;;26.50;23.80;;;;;;;;;;5021285;28;21153;-71
2022/08/10 05:45:19;;;;;;;24.90;22.55;;;;;;;;;;5039668;28;20557;-73
2022/08/10 05:47:44;;;;;;;25.67;23.15;;;;;;;;;;5039166;28;20055;-74
2022/08/10 05:50:10;;;;;;;26.02;23.45;;;;;;;;;;5049313;28;20444;-74
2022/08/10 05:52:35;;;;;;;25.95;23.27;;;;;;;;;;5044762;28;20063;-74
2022/08/10 05:55:01;;;;;;;25.65;22.90;;;;;;;;;;5040006;28;20054;-75
2022/08/10 05:57:26;;;;;;;25.60;23.08;;;;;;;;;;5043700;28;20024;-76
2022/08/10 05:59:59;;;;;;;25.20;22.60;;;;;;;;;;5043866;28;20036;-73
2022/08/10 06:02:28;;;;;;;25.88;23.27;;;;;;;;;;5042194;28;20020;-73
2022/08/10 06:04:54;;;;;;;24.52;22.05;;;;;;;;;;5046040;28;20471;-71
2022/08/10 06:07:20;;;;;;;26.40;23.80;;;;;;;;;;5033868;28;20358;-73
2022/08/10 06:09:46;;;;;;;26.88;24.23;;;;;;;;;;5045761;28;20444;-74
2022/08/10 06:12:12;;;;;;;25.23;22.70;;;;;;;;;;5056742;28;20086;-72
2022/08/10 06:17:23;;;;;;;25.30;22.83;;;;;;;;;;5055596;28;20513;-72
2022/08/10 06:19:49;;;;;;;25.58;23.17;;;;;;;;;;5053112;28;20053;-71
2022/08/10 06:22:15;;;;;;;26.60;23.95;;;;;;;;;;5051504;28;20352;-71
2022/08/10 06:24:41;;;;;;;25.38;22.92;;;;;;;;;;5049697;28;20031;-72
2022/08/10 06:27:06;;;;;;;24.00;21.67;;;;;;;;;;5054850;28;20028;-71
2022/08/10 06:29:33;;;;;;;21.92;19.83;;;;;;;;;;5057172;28;20347;-72
2022/08/10 06:31:59;;;;;;;25.23;22.63;;;;;;;;;;5057190;28;20036;-75
2022/08/10 06:34:46;;;;;;;23.98;21.52;;;;;;;;;;5056880;28;20048;-72
2022/08/10 06:37:13;;;;;;;24.30;21.80;;;;;;;;;;5055918;28;20115;-72
2022/08/10 06:39:38;;;;;;;21.65;19.60;;;;;;;;;;5054659;28;20023;-75
2022/08/10 06:42:13;;;;;;;24.52;21.20;;;;;;;;;;5051409;28;20049;-72
2022/08/10 06:44:40;;;;;;;23.38;21.08;;;;;;;;;;5053790;28;20090;-72
2022/08/10 06:47:08;;;;;;;25.67;22.98;;;;;;;;;;5057914;28;20024;-73
2022/08/10 06:49:35;;;;;;;25.27;22.77;;;;;;;;;;5037921;28;20089;-75
2022/08/10 06:52:01;;;;;;;24.65;22.23;;;;;;;;;;5042531;28;20032;-73
2022/08/10 06:54:27;;;;;;;23.88;21.67;;;;;;;;;;5038893;28;20047;-76
2022/08/10 06:56:54;;;;;;;24.35;21.85;;;;;;;;;;5045497;28;20157;-73
2022/08/10 06:59:19;;;;;;;24.00;21.58;;;;;;;;;;5045225;28;20021;-75
2022/08/10 07:01:46;;;;;;;25.33;22.77;;;;;;;;;;5040323;28;20036;-72
2022/08/10 07:04:21;;;;;;;23.40;21.13;;;;;;;;;;5039084;28;20522;-73
2022/08/10 07:06:47;;;;;;;23.38;20.98;;;;;;;;;;5042924;28;20044;-72
2022/08/10 07:09:16;;;;;;;23.00;20.75;;;;;;;;;;5034709;28;20032;-72
2022/08/10 07:11:45;;;;;;;22.88;20.38;;;;;;;;;;5038159;28;20464;-74
2022/08/10 07:14:11;;;;;;;23.42;21.15;;;;;;;;;;5040956;28;20090;-71
2022/08/10 07:16:38;;;;;;;27.27;22.55;;;;;;;;;;5040037;28;20037;-76
2022/08/10 07:19:05;;;;;;;22.13;19.88;;;;;;;;;;5043829;28;20016;-72
2022/08/10 07:21:31;;;;;;;23.67;21.38;;;;;;;;;;5042792;28;20404;-74
2022/08/10 07:23:58;;;;;;;21.30;19.23;;;;;;;;;;5048626;28;20029;-73
2022/08/10 07:26:24;;;;;;;20.30;18.40;;;;;;;;;;5044219;28;20057;-76
2022/08/10 07:28:50;;;;;;;18.70;16.50;;;;;;;;;;5044364;28;20032;-74
2022/08/10 07:31:17;;;;;;;19.27;17.40;;;;;;;;;;5042906;28;20182;-73
2022/08/10 07:33:43;;;;;;;16.58;14.55;;;;;;;;;;5037734;28;20033;-75
2022/08/10 07:36:09;;;;;;;10.90;9.82;;;;;;;;;;5041403;28;20429;-75
2022/08/10 07:38:35;;;;;;;11.98;10.82;;;;;;;;;;5042494;28;20108;-75
2022/08/10 07:41:01;;;;;;;13.32;11.93;;;;;;;;;;5042565;28;20139;-73
2022/08/10 07:43:29;;;;;;;13.55;12.35;;;;;;;;;;5042068;28;20079;-73
2022/08/10 07:45:55;;;;;;;14.00;12.60;;;;;;;;;;5025621;28;20666;-72
2022/08/10 07:48:26;;;;;;;16.60;15.05;;;;;;;;;;5043255;28;20653;-72
2022/08/10 07:50:54;;;;;;;15.48;13.70;;;;;;;;;;5044047;28;20020;-72
2022/08/10 07:53:21;;;;;;;15.35;13.77;;;;;;;;;;5042232;28;20030;-75
2022/08/10 07:55:48;;;;;;;16.17;14.50;;;;;;;;;;5041877;28;20035;-73
2022/08/10 07:58:16;;;;;;;15.52;13.95;;;;;;;;;;5039213;28;20021;-76
2022/08/10 08:00:42;;;;;;;16.27;14.77;;;;;;;;;;5021233;28;20017;-73
2022/08/10 08:03:09;;;;;;;15.77;14.13;;;;;;;;;;5021403;28;20024;-73
2022/08/10 08:05:35;;;;;;;16.08;14.48;;;;;;;;;;5040264;28;20040;-72
2022/08/10 08:08:01;;;;;;;15.40;13.85;;;;;;;;;;5051997;28;20112;-75
2022/08/10 08:10:28;;;;;;;13.25;12.05;;;;;;;;;;5045531;28;20415;-76
2022/08/10 08:12:56;;;;;;;16.08;14.55;;;;;;;;;;5040000;28;20044;-73
2022/08/10 08:15:22;;;;;;;16.33;14.73;;;;;;;;;;5040179;28;20448;-73
2022/08/10 08:17:48;;;;;;;18.10;15.05;;;;;;;;;;5042559;28;20402;-72
2022/08/10 08:20:16;;;;;;;13.68;12.38;;;;;;;;;;5041614;28;20678;-75
2022/08/10 08:22:43;;;;;;;13.15;12.05;;;;;;;;;;5045196;28;20044;-78
2022/08/10 08:25:08;;;;;;;13.65;12.20;;;;;;;;;;5052344;28;20029;-77
2022/08/10 08:27:35;;;;;;;16.50;15.00;;;;;;;;;;5044690;28;20037;-71
2022/08/10 08:30:02;;;;;;;18.20;16.50;;;;;;;;;;5054484;28;20024;-74
2022/08/10 08:32:29;;;;;;;18.50;16.90;;;;;;;;;;5050765;28;20025;-79
2022/08/10 08:35:05;;;;;;;16.50;15.00;;;;;;;;;;5051489;28;20036;-73
2022/08/10 08:37:32;;;;;;;18.75;16.95;;;;;;;;;;5051444;28;20035;-76
2022/08/10 08:39:57;;;;;;;19.48;17.67;;;;;;;;;;5053004;28;20449;-74
2022/08/10 08:42:32;;;;;;;15.75;14.25;;;;;;;;;;5049978;28;20151;-72
2022/08/10 08:45:06;;;;;;;17.70;15.93;;;;;;;;;;5047056;28;20032;-75
2022/08/10 08:47:50;;;;;;;18.02;16.30;;;;;;;;;;5046726;28;20032;-74
2022/08/10 08:50:38;;;;;;;16.70;14.98;;;;;;;;;;5050372;28;20447;-73
2022/08/10 08:53:22;;;;;;;15.25;13.80;;;;;;;;;;5048800;28;20028;-73
2022/08/10 08:55:54;;;;;;;18.38;15.88;;;;;;;;;;5045939;28;20040;-75
2022/08/10 08:58:35;;;;;;;15.68;14.07;;;;;;;;;;5046136;28;20034;-73
2022/08/10 09:01:04;;;;;;;21.45;19.25;;;;;;;;;;5045274;28;20439;-75
2022/08/10 09:03:49;;;;;;;21.55;19.35;;;;;;;;;;5046634;28;20033;-72
2022/08/10 09:06:23;;;;;;;22.42;20.15;;;;;;;;;;5045740;28;20043;-74
2022/08/10 09:09:08;;;;;;;28.30;25.27;;;;;;;;;;5053064;28;20115;-73
2022/08/10 09:11:44;;;;;;;25.05;22.38;;;;;;;;;;5053528;28;20439;-73
2022/08/10 09:14:23;;;;;;;26.38;23.58;;;;;;;;;;5040029;28;20116;-74
2022/08/10 09:16:51;;;;;;;41.85;22.95;;;;;;;;;;5041265;28;20036;-75
2022/08/10 09:19:37;;;;;;;24.23;21.60;;;;;;;;;;5042065;28;20091;-74
2022/08/10 09:22:24;;;;;;;25.65;21.90;;;;;;;;;;5048426;28;20036;-75
2022/08/10 09:24:57;;;;;;;24.77;22.15;;;;;;;;;;5054166;28;20143;-74
2022/08/10 09:27:22;;;;;;;25.38;22.88;;;;;;;;;;5053735;28;20108;-75
2022/08/10 09:30:01;;;;;;;23.85;21.48;;;;;;;;;;5056081;28;20119;-74
2022/08/10 09:32:32;;;;;;;26.90;22.93;;;;;;;;;;5049208;28;20095;-74
2022/08/10 09:35:05;;;;;;;29.33;26.13;;;;;;;;;;5043155;28;20024;-73
2022/08/10 09:37:31;;;;;;;26.90;24.08;;;;;;;;;;5041948;28;20029;-76
2022/08/10 09:39:58;;;;;;;29.50;26.52;;;;;;;;;;5040351;28;20326;-76
2022/08/10 09:42:31;;;;;;;27.67;24.88;;;;;;;;;;5044207;28;20460;-74
2022/08/10 09:45:15;;;;;;;24.70;22.20;;;;;;;;;;5044176;28;20363;-76
2022/08/10 09:47:40;;;;;;;26.02;23.33;;;;;;;;;;5039823;28;20036;-75
2022/08/10 09:50:06;;;;;;;24.95;21.80;;;;;;;;;;5042820;28;20039;-74
2022/08/10 09:52:50;;;;;;;24.23;21.77;;;;;;;;;;5041852;28;20750;-73
2022/08/10 09:55:34;;;;;;;23.92;21.60;;;;;;;;;;5040614;28;20049;-75
2022/08/10 09:58:08;;;;;;;23.52;21.05;;;;;;;;;;5039982;28;20869;-74
2022/08/10 10:00:37;;;;;;;23.83;21.30;;;;;;;;;;5022812;28;20661;-75
2022/08/10 10:03:07;;;;;;;23.67;21.17;;;;;;;;;;5038442;28;20044;-75
2022/08/10 10:05:33;;;;;;;24.85;22.25;;;;;;;;;;5040758;28;20092;-76
2022/08/10 10:08:04;;;;;;;24.52;22.13;;;;;;;;;;5034376;28;20037;-74
2022/08/10 10:10:31;;;;;;;24.08;21.63;;;;;;;;;;5034820;28;20493;-74
2022/08/10 10:13:20;;;;;;;24.95;22.05;;;;;;;;;;5036762;28;20028;-73
2022/08/10 10:16:02;;;;;;;25.17;22.73;;;;;;;;;;5009691;28;20124;-74
2022/08/10 10:18:33;;;;;;;20.80;18.70;;;;;;;;;;5039033;28;20020;-76
2022/08/10 10:21:01;;;;;;;23.50;21.02;;;;;;;;;;5036099;28;20443;-72
2022/08/10 10:23:39;;;;;;;24.07;21.43;;;;;;;;;;5041225;28;20079;-71
2022/08/10 10:26:10;;;;;;;19.55;17.65;;;;;;;;;;5038267;28;20277;-71
2022/08/10 10:28:53;;;;;;;23.08;20.88;;;;;;;;;;5038364;28;20033;-72
2022/08/10 10:31:38;;;;;;;21.33;19.13;;;;;;;;;;5039819;28;20503;-77
2022/08/10 10:34:22;;;;;;;20.80;18.70;;;;;;;;;;5040679;28;20092;-72
2022/08/10 10:36:48;;;;;;;20.38;18.50;;;;;;;;;;5038773;28;20363;-74
2022/08/10 10:39:15;;;;;;;25.38;23.00;;;;;;;;;;5040918;28;20070;-73
2022/08/10 10:41:50;;;;;;;21.33;19.02;;;;;;;;;;5050447;28;20518;-72
2022/08/10 10:44:24;;;;;;;25.27;20.92;;;;;;;;;;5044291;28;20033;-72
2022/08/10 10:47:08;;;;;;;19.95;17.85;;;;;;;;;;5042874;28;20037;-75
2022/08/10 10:49:36;;;;;;;20.90;18.48;;;;;;;;;;5040335;28;20033;-74
2022/08/10 10:52:06;;;;;;;22.03;19.73;;;;;;;;;;5041356;28;20113;-73
2022/08/10 10:54:39;;;;;;;21.92;19.75;;;;;;;;;;5046951;28;20254;-73
2022/08/10 10:57:10;;;;;;;22.63;20.33;;;;;;;;;;5045158;28;20177;-74
2022/08/10 11:00:02;;;;;;;26.73;21.13;;;;;;;;;;5034418;28;20119;-76
2022/08/10 11:02:31;;;;;;;23.23;20.83;;;;;;;;;;5038334;28;20462;-75
2022/08/10 11:04:59;;;;;;;30.52;22.80;;;;;;;;;;5036810;28;20021;-75
2022/08/10 11:07:27;;;;;;;21.13;18.93;;;;;;;;;;5040849;28;20394;-74
2022/08/10 11:09:57;;;;;;;20.33;17.45;;;;;;;;;;5044188;28;20036;-74
2022/08/10 11:12:45;;;;;;;23.15;20.60;;;;;;;;;;5037999;28;20051;-76
2022/08/10 11:15:27;;;;;;;23.77;21.08;;;;;;;;;;5034625;28;20091;-76
2022/08/10 11:18:02;;;;;;;24.65;21.13;;;;;;;;;;5038976;28;20300;-76
2022/08/10 11:20:37;;;;;;;21.17;18.88;;;;;;;;;;5035689;28;20142;-75
2022/08/10 11:23:02;;;;;;;15.57;12.65;;;;;;;;;;5038780;28;20029;-75
2022/08/10 11:25:31;;;;;;;15.38;12.55;;;;;;;;;;5039856;28;20036;-74
2022/08/10 11:27:57;;;;;;;;;;;;;;;;;;5043095;28;20499;-75
2022/08/10 11:30:32;;;;;;;15.90;11.87;;;;;;;;;;5040531;28;19919;-75
2022/08/10 11:33:30;;;;;;;13.40;11.80;;;;;;;;;;5037516;28;20261;-75
2022/08/10 11:36:01;;;;;;;16.65;13.52;;;;;;;;;;4970205;28;20061;-74
2022/08/10 11:38:29;;;;;;;14.68;13.23;;;;;;;;;;4968773;28;20038;-75
2022/08/10 11:41:00;;;;;;;14.63;13.23;;;;;;;;;;4969456;28;20082;-75
2022/08/10 11:43:28;;;;;;;13.95;12.50;;;;;;;;;;4968465;28;20038;-75
2022/08/10 11:46:10;;;;;;;13.23;11.70;;;;;;;;;;4966626;28;20048;-75
2022/08/10 11:48:39;;;;;;;13.65;12.25;;;;;;;;;;4957994;28;20034;-73
2022/08/10 11:51:09;;;;;;;12.98;11.63;;;;;;;;;;4952454;28;20470;-74
2022/08/10 11:53:34;;;;;;;11.77;10.57;;;;;;;;;;4969509;28;20036;-76
2022/08/10 11:56:00;;;;;;;11.38;10.27;;;;;;;;;;4967112;28;20038;-76
2022/08/10 12:01:12;;;;;;;10.38;8.70;;;;;;;;;;4968015;28;20033;-72
2022/08/10 12:03:40;;;;;;;10.90;9.80;;;;;;;;;;4974114;28;20062;-75
2022/08/10 12:06:12;;;;;;;10.07;8.93;;;;;;;;;;4971417;28;20452;-76
2022/08/10 12:08:37;;;;;;;9.02;8.20;;;;;;;;;;4980207;28;20442;-72
2022/08/10 12:11:03;;;;;;;9.57;8.32;;;;;;;;;;4999326;28;20033;-72
2022/08/10 12:13:30;;;;;;;8.65;7.85;;;;;;;;;;5041399;28;20028;-75
2022/08/10 12:16:03;;;;;;;9.85;8.88;;;;;;;;;;5036502;28;20060;-73
2022/08/10 12:18:46;;;;;;;10.50;9.43;;;;;;;;;;5041317;28;20028;-74
2022/08/10 12:21:14;;;;;;;12.20;9.23;;;;;;;;;;5048710;28;20048;-73
2022/08/10 12:23:46;;;;;;;11.55;10.43;;;;;;;;;;5048898;28;20058;-74
2022/08/10 12:26:12;;;;;;;15.02;10.70;;;;;;;;;;5044269;28;20033;-75
2022/08/10 12:28:46;;;;;;;12.30;10.40;;;;;;;;;;5043472;28;20039;-74
2022/08/10 12:31:12;;;;;;;10.73;9.52;;;;;;;;;;5044054;28;20028;-76
2022/08/10 12:33:56;;;;;;;11.00;9.60;;;;;;;;;;5048509;28;20027;-75
2022/08/10 12:36:25;;;;;;;11.90;10.20;;;;;;;;;;5052884;28;20029;-74
2022/08/10 12:38:56;;;;;;;11.82;10.63;;;;;;;;;;5054452;28;20417;-75
2022/08/10 12:41:36;;;;;;;12.07;10.25;;;;;;;;;;5051901;28;20432;-75
2022/08/10 12:44:07;;;;;;;13.18;11.93;;;;;;;;;;5051394;28;20028;-74
2022/08/10 12:46:39;;;;;;;12.07;10.88;;;;;;;;;;5055199;28;20028;-74
2022/08/10 12:49:07;;;;;;;13.00;11.38;;;;;;;;;;5048076;28;20043;-75
2022/08/10 12:51:34;;;;;;;11.45;10.10;;;;;;;;;;5049316;28;20025;-74
2022/08/10 12:53:59;;;;;;;12.23;10.90;;;;;;;;;;5052693;28;20116;-74
2022/08/10 12:56:35;;;;;;;13.50;10.82;;;;;;;;;;5056643;28;20103;-74
2022/08/10 12:59:03;;;;;;;13.68;10.70;;;;;;;;;;5055489;28;20024;-73
2022/08/10 13:01:31;;;;;;;10.10;9.10;;;;;;;;;;5056364;28;20025;-75
2022/08/10 13:03:59;;;;;;;10.27;9.20;;;;;;;;;;5020745;28;20029;-74
2022/08/10 13:06:25;;;;;;;9.77;8.90;;;;;;;;;;5043369;28;20056;-73
2022/08/10 13:09:12;;;;;;;10.45;9.35;;;;;;;;;;5043791;28;20038;-75
2022/08/10 13:11:55;;;;;;;9.88;8.88;;;;;;;;;;5045252;28;20459;-74
2022/08/10 13:14:33;;;;;;;10.50;9.43;;;;;;;;;;5042698;28;20109;-72
2022/08/10 13:17:01;;;;;;;9.98;8.15;;;;;;;;;;5044947;28;20081;-73
2022/08/10 13:19:27;;;;;;;8.40;7.50;;;;;;;;;;5042319;28;20056;-74
2022/08/10 13:21:55;;;;;;;7.82;6.97;;;;;;;;;;5040289;28;20203;-76
2022/08/10 13:24:27;;;;;;;6.93;6.32;;;;;;;;;;5041550;28;20806;-72
2022/08/10 13:26:56;;;;;;;6.32;5.72;;;;;;;;;;5039693;28;20040;-73
2022/08/10 13:29:22;;;;;;;8.18;7.38;;;;;;;;;;5045742;28;20021;-73
2022/08/10 13:31:51;;;;;;;9.35;7.78;;;;;;;;;;5044081;28;20040;-74
2022/08/10 13:34:19;;;;;;;7.70;7.00;;;;;;;;;;5038633;28;20060;-74
2022/08/10 13:36:47;;;;;;;8.45;7.60;;;;;;;;;;5040947;28;20578;-74
2022/08/10 13:39:13;;;;;;;8.43;7.63;;;;;;;;;;5042548;28;20044;-73
2022/08/10 13:41:40;;;;;;;8.77;7.85;;;;;;;;;;5041049;28;20775;-71
2022/08/10 13:44:07;;;;;;;9.65;7.70;;;;;;;;;;5023787;28;20031;-73
2022/08/10 13:46:32;;;;;;;11.18;10.07;;;;;;;;;;5036622;28;21254;-73
2022/08/10 13:49:01;;;;;;;11.18;9.07;;;;;;;;;;5040471;28;20083;-73
2022/08/10 13:51:28;;;;;;;10.60;9.50;;;;;;;;;;5036334;28;20138;-73
2022/08/10 13:53:55;;;;;;;11.32;10.13;;;;;;;;;;5033574;28;20033;-71
2022/08/10 13:56:21;;;;;;;11.10;9.98;;;;;;;;;;5042280;28;20021;-73
2022/08/10 13:58:48;;;;;;;11.82;10.65;;;;;;;;;;5038687;28;20032;-72
2022/08/10 14:01:16;;;;;;;10.68;9.57;;;;;;;;;;5043300;28;20036;-71
2022/08/10 14:03:43;;;;;;;13.00;9.77;;;;;;;;;;5043357;28;20376;-71
2022/08/10 14:06:13;;;;;;;11.13;9.55;;;;;;;;;;5044913;28;20032;-70
2022/08/10 14:08:40;;;;;;;12.80;11.15;;;;;;;;;;5052142;28;20770;-71
2022/08/10 14:11:09;;;;;;;12.23;9.43;;;;;;;;;;5053728;28;20025;-71
2022/08/10 14:13:36;;;;;;;13.57;8.30;;;;;;;;;;5048860;28;20035;-72
2022/08/10 14:16:05;;;;;;;10.55;8.70;;;;;;;;;;5037234;28;20128;-73
2022/08/10 14:18:34;;;;;;;10.70;7.95;;;;;;;;;;5044499;28;20099;-74
2022/08/10 14:20:59;;;;;;;9.25;8.05;;;;;;;;;;5041830;28;20024;-74
2022/08/10 14:23:25;;;;;;;9.43;8.02;;;;;;;;;;5041253;28;21444;-73
2022/08/10 14:25:59;;;;;;;10.25;8.50;;;;;;;;;;5040883;28;20024;-73
2022/08/10 14:28:25;;;;;;;11.93;9.50;;;;;;;;;;5044795;28;20042;-72
2022/08/10 14:30:59;;;;;;;9.43;8.15;;;;;;;;;;5049954;28;20025;-74
2022/08/10 14:33:26;;;;;;;9.85;8.82;;;;;;;;;;5024410;28;20399;-72
2022/08/10 14:35:53;;;;;;;10.90;9.25;;;;;;;;;;5040258;28;20423;-72
2022/08/10 14:38:19;;;;;;;12.57;9.43;;;;;;;;;;5043829;28;20052;-73
2022/08/10 14:40:48;;;;;;;10.50;9.40;;;;;;;;;;5034494;28;20047;-72
2022/08/10 14:43:14;;;;;;;;;;;;;;;;;;5045126;28;20086;-72